sensor_id;sensor_type;location;lat;lon;timestamp;pressure;altitude;pressure_sealevel;temperature;humidity
45253;BME280;63171;50.520;30.486;2023-07-29T00:00:13;99264.47;;;21.49;50.55
45253;BME280;63171;50.520;30.486;2023-07-29T00:01:47;99259.75;;;21.36;51.13
45253;BME280;63171;50.520;30.486;2023-07-29T00:02:40;99263.53;;;21.42;51.15
45253;BME280;63171;50.520;30.486;2023-07-29T00:03:31;99265.75;;;21.38;51.01
45253;BME280;63171;50.520;30.486;2023-07-29T00:04:21;99267.03;;;21.42;51.63
45253;BME280;63171;50.520;30.486;2023-07-29T00:05:11;99265.56;;;21.40;51.28
45253;BME280;63171;50.520;30.486;2023-07-29T00:06:02;99269.69;;;21.42;51.78
45253;BME280;63171;50.520;30.486;2023-07-29T00:06:52;99275.22;;;21.41;51.62
45253;BME280;63171;50.520;30.486;2023-07-29T00:07:42;99265.66;;;21.46;51.73
45253;BME280;63171;50.520;30.486;2023-07-29T00:08:33;99265.19;;;21.43;51.80
45253;BME280;63171;50.520;30.486;2023-07-29T00:09:23;99272.53;;;21.41;52.38
45253;BME280;63171;50.520;30.486;2023-07-29T00:10:13;99271.06;;;21.38;52.07
45253;BME280;63171;50.520;30.486;2023-07-29T00:11:04;99268.88;;;21.42;52.06
45253;BME280;63171;50.520;30.486;2023-07-29T00:11:53;99273.00;;;21.44;52.63
45253;BME280;63171;50.520;30.486;2023-07-29T00:12:43;99265.47;;;21.48;52.79
45253;BME280;63171;50.520;30.486;2023-07-29T00:13:34;99267.31;;;21.47;52.75
45253;BME280;63171;50.520;30.486;2023-07-29T00:14:24;99264.47;;;21.49;52.83
45253;BME280;63171;50.520;30.486;2023-07-29T00:15:15;99271.94;;;21.53;52.53
45253;BME280;63171;50.520;30.486;2023-07-29T00:16:04;99266.41;;;21.40;52.58
45253;BME280;63171;50.520;30.486;2023-07-29T00:16:54;99274.91;;;21.36;52.58
45253;BME280;63171;50.520;30.486;2023-07-29T00:17:46;99266.56;;;21.39;53.10
45253;BME280;63171;50.520;30.486;2023-07-29T00:18:36;99261.75;;;21.34;53.13
45253;BME280;63171;50.520;30.486;2023-07-29T00:19:27;99264.94;;;21.38;53.34
45253;BME280;63171;50.520;30.486;2023-07-29T00:20:17;99265.44;;;21.33;53.21
45253;BME280;63171;50.520;30.486;2023-07-29T00:21:07;99264.09;;;21.37;53.39
45253;BME280;63171;50.520;30.486;2023-07-29T00:21:58;99262.25;;;21.38;53.59
45253;BME280;63171;50.520;30.486;2023-07-29T00:22:48;99259.22;;;21.41;53.56
45253;BME280;63171;50.520;30.486;2023-07-29T00:23:39;99265.00;;;21.44;53.86
45253;BME280;63171;50.520;30.486;2023-07-29T00:24:30;99263.19;;;21.45;53.62
45253;BME280;63171;50.520;30.486;2023-07-29T00:25:20;99267.03;;;21.42;54.21
45253;BME280;63171;50.520;30.486;2023-07-29T00:26:11;99254.53;;;21.43;53.85
45253;BME280;63171;50.520;30.486;2023-07-29T00:27:01;99258.41;;;21.40;54.06
45253;BME280;63171;50.520;30.486;2023-07-29T00:27:51;99254.97;;;21.32;54.10
45253;BME280;63171;50.520;30.486;2023-07-29T00:28:44;99255.97;;;21.31;54.40
45253;BME280;63171;50.520;30.486;2023-07-29T00:29:34;99250.38;;;21.26;54.31
45253;BME280;63171;50.520;30.486;2023-07-29T00:30:25;99258.63;;;21.31;54.30
45253;BME280;63171;50.520;30.486;2023-07-29T00:31:16;99258.28;;;21.34;54.38
45253;BME280;63171;50.520;30.486;2023-07-29T00:32:07;99259.09;;;21.34;54.60
45253;BME280;63171;50.520;30.486;2023-07-29T00:32:58;99259.75;;;21.36;54.60
45253;BME280;63171;50.520;30.486;2023-07-29T00:33:49;99257.44;;;21.33;54.82
45253;BME280;63171;50.520;30.486;2023-07-29T00:34:39;99261.47;;;21.29;54.86
45253;BME280;63171;50.520;30.486;2023-07-29T00:35:29;99255.34;;;21.20;54.89
45253;BME280;63171;50.520;30.486;2023-07-29T00:36:20;99250.66;;;21.22;55.14
45253;BME280;63171;50.520;30.486;2023-07-29T00:37:10;99256.19;;;21.21;55.32
45253;BME280;63171;50.520;30.486;2023-07-29T00:38:00;99256.19;;;21.21;55.33
45253;BME280;63171;50.520;30.486;2023-07-29T00:38:50;99268.19;;;21.17;55.41
45253;BME280;63171;50.520;30.486;2023-07-29T00:39:42;99267.47;;;21.23;56.05
45253;BME280;63171;50.520;30.486;2023-07-29T00:40:35;99268.00;;;21.27;56.17
45253;BME280;63171;50.520;30.486;2023-07-29T00:41:25;99268.66;;;21.29;56.15
45253;BME280;63171;50.520;30.486;2023-07-29T00:42:16;99264.97;;;21.30;56.17
45253;BME280;63171;50.520;30.486;2023-07-29T00:43:06;99267.19;;;21.26;56.51
45253;BME280;63171;50.520;30.486;2023-07-29T00:43:58;99266.84;;;21.21;56.11
45253;BME280;63171;50.520;30.486;2023-07-29T00:44:49;99269.16;;;21.24;56.37
45253;BME280;63171;50.520;30.486;2023-07-29T00:45:41;99263.00;;;21.23;56.78
45253;BME280;63171;50.520;30.486;2023-07-29T00:46:34;99264.16;;;21.21;56.78
45253;BME280;63171;50.520;30.486;2023-07-29T00:47:27;99272.81;;;21.23;56.53
45253;BME280;63171;50.520;30.486;2023-07-29T00:48:18;99269.16;;;21.24;57.12
45253;BME280;63171;50.520;30.486;2023-07-29T00:49:09;99271.50;;;21.19;57.23
45253;BME280;63171;50.520;30.486;2023-07-29T00:50:00;99267.09;;;21.11;57.24
45253;BME280;63171;50.520;30.486;2023-07-29T00:50:51;99263.06;;;21.15;57.41
45253;BME280;63171;50.520;30.486;2023-07-29T00:51:41;99268.09;;;21.10;57.18
45253;BME280;63171;50.520;30.486;2023-07-29T00:52:32;99270.91;;;21.09;57.43
45253;BME280;63171;50.520;30.486;2023-07-29T00:53:22;99269.25;;;21.08;57.39
45253;BME280;63171;50.520;30.486;2023-07-29T00:54:13;99269.75;;;21.11;57.50
45253;BME280;63171;50.520;30.486;2023-07-29T00:55:05;99264.91;;;21.15;58.09
45253;BME280;63171;50.520;30.486;2023-07-29T00:55:55;99255.72;;;21.17;57.71
45253;BME280;63171;50.520;30.486;2023-07-29T00:56:45;99269.50;;;21.21;57.85
45253;BME280;63171;50.520;30.486;2023-07-29T00:57:37;99262.34;;;21.21;58.23
45253;BME280;63171;50.520;30.486;2023-07-29T00:58:28;99256.34;;;21.19;58.20
45253;BME280;63171;50.520;30.486;2023-07-29T00:59:17;99263.34;;;21.20;58.16
45253;BME280;63171;50.520;30.486;2023-07-29T01:00:09;99261.31;;;21.22;58.44
45253;BME280;63171;50.520;30.486;2023-07-29T01:01:00;99255.34;;;21.20;58.22
45253;BME280;63171;50.520;30.486;2023-07-29T01:01:51;99257.56;;;21.17;58.19
45253;BME280;63171;50.520;30.486;2023-07-29T01:02:42;99249.38;;;21.18;58.55
45253;BME280;63171;50.520;30.486;2023-07-29T01:03:34;99256.19;;;21.21;58.53
45253;BME280;63171;50.520;30.486;2023-07-29T01:04:24;99258.38;;;21.17;58.54
45253;BME280;63171;50.520;30.486;2023-07-29T01:05:16;99259.03;;;21.19;58.81
45253;BME280;63171;50.520;30.486;2023-07-29T01:06:12;99263.88;;;21.16;58.66
45253;BME280;63171;50.520;30.486;2023-07-29T01:07:11;99252.78;;;21.12;58.90
45253;BME280;63171;50.520;30.486;2023-07-29T01:08:07;99251.56;;;21.15;58.94
45253;BME280;63171;50.520;30.486;2023-07-29T01:09:04;99261.41;;;21.14;59.06
45253;BME280;63171;50.520;30.486;2023-07-29T01:09:58;99261.03;;;21.17;59.13
45253;BME280;63171;50.520;30.486;2023-07-29T01:10:55;99268.66;;;21.20;59.36
45253;BME280;63171;50.520;30.486;2023-07-29T01:11:54;99258.75;;;21.14;59.38
45253;BME280;63171;50.520;30.486;2023-07-29T01:12:51;99261.88;;;21.18;59.51
45253;BME280;63171;50.520;30.486;2023-07-29T01:13:48;99262.41;;;21.13;59.32
45253;BME280;63171;50.520;30.486;2023-07-29T01:14:45;99261.59;;;21.13;59.62
45253;BME280;63171;50.520;30.486;2023-07-29T01:15:43;99260.44;;;21.07;59.70
45253;BME280;63171;50.520;30.486;2023-07-29T01:16:40;99267.59;;;21.07;59.71
45253;BME280;63171;50.520;30.486;2023-07-29T01:17:33;99259.63;;;21.07;59.63
45253;BME280;63171;50.520;30.486;2023-07-29T01:18:29;99263.59;;;21.11;59.81
45253;BME280;63171;50.520;30.486;2023-07-29T01:19:37;99267.13;;;21.03;60.24
45253;BME280;63171;50.520;30.486;2023-07-29T01:20:33;99263.66;;;21.03;60.09
45253;BME280;63171;50.520;30.486;2023-07-29T01:21:28;99271.47;;;21.04;60.37
45253;BME280;63171;50.520;30.486;2023-07-29T01:22:20;99256.13;;;21.06;60.73
45253;BME280;63171;50.520;30.486;2023-07-29T01:23:11;99261.81;;;21.03;60.37
45253;BME280;63171;50.520;30.486;2023-07-29T01:24:03;99265.66;;;21.01;60.80
45253;BME280;63171;50.520;30.486;2023-07-29T01:24:54;99266.66;;;21.00;60.82
45253;BME280;63171;50.520;30.486;2023-07-29T01:25:45;99263.81;;;21.01;60.92
45253;BME280;63171;50.520;30.486;2023-07-29T01:26:35;99265.13;;;21.05;60.89
45253;BME280;63171;50.520;30.486;2023-07-29T01:27:27;99267.59;;;21.07;61.22
45253;BME280;63171;50.520;30.486;2023-07-29T01:28:17;99260.13;;;21.10;60.96
45253;BME280;63171;50.520;30.486;2023-07-29T01:29:08;99264.28;;;21.05;60.99
45253;BME280;63171;50.520;30.486;2023-07-29T01:29:59;99262.28;;;21.07;61.08
45253;BME280;63171;50.520;30.486;2023-07-29T01:30:51;99264.28;;;21.05;61.38
45253;BME280;63171;50.520;30.486;2023-07-29T01:31:48;99269.16;;;21.01;61.26
45253;BME280;63171;50.520;30.486;2023-07-29T01:32:43;99272.66;;;21.02;61.34
45253;BME280;63171;50.520;30.486;2023-07-29T01:33:39;99282.94;;;21.05;61.45
45253;BME280;63171;50.520;30.486;2023-07-29T01:34:32;99272.94;;;21.07;61.83
45253;BME280;63171;50.520;30.486;2023-07-29T01:35:28;99264.75;;;21.08;61.62
45253;BME280;63171;50.520;30.486;2023-07-29T01:36:26;99280.56;;;21.10;61.85
45253;BME280;63171;50.520;30.486;2023-07-29T01:37:20;99276.59;;;21.06;61.67
45253;BME280;63171;50.520;30.486;2023-07-29T01:38:14;99271.63;;;21.03;61.90
45253;BME280;63171;50.520;30.486;2023-07-29T01:39:08;99270.63;;;21.04;61.75
45253;BME280;63171;50.520;30.486;2023-07-29T01:40:03;99269.97;;;21.02;61.84
45253;BME280;63171;50.520;30.486;2023-07-29T01:40:56;99276.97;;;21.03;62.14
45253;BME280;63171;50.520;30.486;2023-07-29T01:41:46;99271.09;;;21.07;62.11
45253;BME280;63171;50.520;30.486;2023-07-29T01:42:38;99272.94;;;21.07;62.17
45253;BME280;63171;50.520;30.486;2023-07-29T01:43:28;99278.78;;;21.02;62.11
45253;BME280;63171;50.520;30.486;2023-07-29T01:44:19;99273.00;;;20.99;62.48
45253;BME280;63171;50.520;30.486;2023-07-29T01:45:10;99274.94;;;21.05;62.27
45253;BME280;63171;50.520;30.486;2023-07-29T01:46:00;99274.41;;;21.09;62.66
45253;BME280;63171;50.520;30.486;2023-07-29T01:46:51;99276.78;;;21.04;62.29
45253;BME280;63171;50.520;30.486;2023-07-29T01:47:41;99283.56;;;21.07;62.41
45253;BME280;63171;50.520;30.486;2023-07-29T01:48:31;99277.25;;;21.08;62.65
45253;BME280;63171;50.520;30.486;2023-07-29T01:49:22;99280.09;;;21.06;62.74
45253;BME280;63171;50.520;30.486;2023-07-29T01:50:11;99269.25;;;21.08;62.87
45253;BME280;63171;50.520;30.486;2023-07-29T01:51:01;99277.25;;;21.08;62.66
45253;BME280;63171;50.520;30.486;2023-07-29T01:51:52;99271.63;;;21.03;62.83
45253;BME280;63171;50.520;30.486;2023-07-29T01:52:42;99282.94;;;21.05;62.74
45253;BME280;63171;50.520;30.486;2023-07-29T01:53:32;99277.59;;;21.05;62.75
45253;BME280;63171;50.520;30.486;2023-07-29T01:54:25;99279.81;;;21.01;62.99
45253;BME280;63171;50.520;30.486;2023-07-29T01:55:15;99276.13;;;21.02;62.75
45253;BME280;63171;50.520;30.486;2023-07-29T01:56:06;99281.94;;;21.06;63.20
45253;BME280;63171;50.520;30.486;2023-07-29T01:56:58;99272.75;;;21.08;62.86
45253;BME280;63171;50.520;30.486;2023-07-29T01:57:50;99275.91;;;21.12;63.22
45253;BME280;63171;50.520;30.486;2023-07-29T01:58:40;99278.38;;;21.13;63.17
45253;BME280;63171;50.520;30.486;2023-07-29T01:59:30;99265.72;;;21.15;62.89
45253;BME280;63171;50.520;30.486;2023-07-29T02:00:21;99279.22;;;21.14;63.05
45253;BME280;63171;50.520;30.486;2023-07-29T02:01:11;99282.75;;;21.06;62.96
45253;BME280;63171;50.520;30.486;2023-07-29T02:02:01;99275.22;;;21.10;62.95
45253;BME280;63171;50.520;30.486;2023-07-29T02:02:52;99283.41;;;21.08;63.07
45253;BME280;63171;50.520;30.486;2023-07-29T02:03:42;99286.25;;;21.07;63.11
45253;BME280;63171;50.520;30.486;2023-07-29T02:04:32;99276.91;;;21.11;63.34
45253;BME280;63171;50.520;30.486;2023-07-29T02:05:23;99277.56;;;21.13;63.08
45253;BME280;63171;50.520;30.486;2023-07-29T02:06:12;99273.75;;;21.07;63.31
45253;BME280;63171;50.520;30.486;2023-07-29T02:07:04;99280.56;;;21.10;63.41
45253;BME280;63171;50.520;30.486;2023-07-29T02:07:54;99273.75;;;21.07;63.51
45253;BME280;63171;50.520;30.486;2023-07-29T02:08:44;99283.09;;;21.03;63.16
45253;BME280;63171;50.520;30.486;2023-07-29T02:09:36;99282.56;;;21.08;63.27
45253;BME280;63171;50.520;30.486;2023-07-29T02:10:26;99282.25;;;21.11;63.42
45253;BME280;63171;50.520;30.486;2023-07-29T02:11:17;99269.75;;;21.11;63.35
45253;BME280;63171;50.520;30.486;2023-07-29T02:12:09;99282.06;;;21.12;63.30
45253;BME280;63171;50.520;30.486;2023-07-29T02:13:02;99278.38;;;21.13;63.28
45253;BME280;63171;50.520;30.486;2023-07-29T02:13:53;99277.75;;;21.11;63.40
45253;BME280;63171;50.520;30.486;2023-07-29T02:14:43;99281.88;;;21.14;63.72
45253;BME280;63171;50.520;30.486;2023-07-29T02:15:33;99285.19;;;21.16;63.64
45253;BME280;63171;50.520;30.486;2023-07-29T02:16:24;99277.84;;;21.18;63.41
45253;BME280;63171;50.520;30.486;2023-07-29T02:17:14;99284.38;;;21.15;63.52
45253;BME280;63171;50.520;30.486;2023-07-29T02:18:04;99286.56;;;21.12;63.36
45253;BME280;63171;50.520;30.486;2023-07-29T02:18:55;99287.25;;;21.06;63.38
45253;BME280;63171;50.520;30.486;2023-07-29T02:19:45;99279.16;;;20.99;63.57
45253;BME280;63171;50.520;30.486;2023-07-29T02:20:37;99288.16;;;20.98;63.58
45253;BME280;63171;50.520;30.486;2023-07-29T02:21:27;99292.28;;;21.01;63.87
45253;BME280;63171;50.520;30.486;2023-07-29T02:22:17;99290.28;;;21.03;63.96
45253;BME280;63171;50.520;30.486;2023-07-29T02:23:08;99293.75;;;21.03;63.99
45253;BME280;63171;50.520;30.486;2023-07-29T02:23:58;99292.94;;;21.03;63.89
45253;BME280;63171;50.520;30.486;2023-07-29T02:24:49;99281.81;;;20.99;63.82
45253;BME280;63171;50.520;30.486;2023-07-29T02:25:40;99299.44;;;21.00;63.81
45253;BME280;63171;50.520;30.486;2023-07-29T02:26:30;99293.28;;;21.00;64.37
45253;BME280;63171;50.520;30.486;2023-07-29T02:27:20;99289.81;;;20.99;64.02
45253;BME280;63171;50.520;30.486;2023-07-29T02:28:11;99283.94;;;21.04;64.34
45253;BME280;63171;50.520;30.486;2023-07-29T02:29:01;99279.63;;;21.03;64.27
45253;BME280;63171;50.520;30.486;2023-07-29T02:29:51;99286.78;;;21.02;64.15
45253;BME280;63171;50.520;30.486;2023-07-29T02:30:42;99286.25;;;21.07;64.13
45253;BME280;63171;50.520;30.486;2023-07-29T02:31:34;99280.63;;;21.02;64.33
45253;BME280;63171;50.520;30.486;2023-07-29T02:32:24;99283.75;;;21.05;64.27
45253;BME280;63171;50.520;30.486;2023-07-29T02:33:15;99284.59;;;21.06;64.45
45253;BME280;63171;50.520;30.486;2023-07-29T02:34:05;99283.56;;;21.07;64.52
45253;BME280;63171;50.520;30.486;2023-07-29T02:34:55;99280.72;;;21.08;64.42
45253;BME280;63171;50.520;30.486;2023-07-29T02:35:46;99282.56;;;21.08;64.59
45253;BME280;63171;50.520;30.486;2023-07-29T02:36:35;99273.09;;;21.05;64.61
45253;BME280;63171;50.520;30.486;2023-07-29T02:37:26;99276.97;;;21.03;64.70
45253;BME280;63171;50.520;30.486;2023-07-29T02:38:16;99281.00;;;20.99;64.56
45253;BME280;63171;50.520;30.486;2023-07-29T02:39:06;99279.34;;;20.98;64.60
45253;BME280;63171;50.520;30.486;2023-07-29T02:39:59;99280.31;;;20.96;64.61
45253;BME280;63171;50.520;30.486;2023-07-29T02:40:49;99279.47;;;20.96;64.52
45253;BME280;63171;50.520;30.486;2023-07-29T02:41:39;99284.66;;;20.98;64.67
45253;BME280;63171;50.520;30.486;2023-07-29T02:42:30;99284.16;;;20.94;64.72
45253;BME280;63171;50.520;30.486;2023-07-29T02:43:20;99284.97;;;20.94;64.85
45253;BME280;63171;50.520;30.486;2023-07-29T02:44:10;99285.53;;;20.90;64.68
45253;BME280;63171;50.520;30.486;2023-07-29T02:45:00;99276.25;;;20.86;65.08
45253;BME280;63171;50.520;30.486;2023-07-29T02:45:50;99279.91;;;20.85;65.06
45253;BME280;63171;50.520;30.486;2023-07-29T02:46:40;99278.25;;;20.84;64.95
45253;BME280;63171;50.520;30.486;2023-07-29T02:47:31;99281.06;;;20.82;64.89
45253;BME280;63171;50.520;30.486;2023-07-29T02:48:21;99278.75;;;20.79;65.26
45253;BME280;63171;50.520;30.486;2023-07-29T02:49:12;99276.28;;;20.78;65.08
45253;BME280;63171;50.520;30.486;2023-07-29T02:50:02;99281.06;;;20.82;65.35
45253;BME280;63171;50.520;30.486;2023-07-29T02:50:51;99277.06;;;20.86;65.34
45253;BME280;63171;50.520;30.486;2023-07-29T02:51:42;99284.56;;;20.83;65.23
45253;BME280;63171;50.520;30.486;2023-07-29T02:52:32;99284.56;;;20.83;65.43
45253;BME280;63171;50.520;30.486;2023-07-29T02:53:22;99283.91;;;20.81;65.59
45253;BME280;63171;50.520;30.486;2023-07-29T02:54:13;99286.88;;;20.86;65.80
45253;BME280;63171;50.520;30.486;2023-07-29T02:55:06;99292.22;;;20.86;65.55
45253;BME280;63171;50.520;30.486;2023-07-29T02:55:56;99292.06;;;20.79;65.58
45253;BME280;63171;50.520;30.486;2023-07-29T02:56:46;99287.94;;;20.77;65.86
45253;BME280;63171;50.520;30.486;2023-07-29T02:57:37;99291.13;;;20.72;66.08
45253;BME280;63171;50.520;30.486;2023-07-29T02:58:27;99284.97;;;20.72;65.84
45253;BME280;63171;50.520;30.486;2023-07-29T02:59:17;99282.81;;;20.67;66.04
45253;BME280;63171;50.520;30.486;2023-07-29T03:00:10;99286.44;;;20.74;66.13
45253;BME280;63171;50.520;30.486;2023-07-29T03:01:00;99287.94;;;20.77;66.18
45253;BME280;63171;50.520;30.486;2023-07-29T03:01:52;99281.41;;;20.79;66.17
45253;BME280;63171;50.520;30.486;2023-07-29T03:02:43;99289.72;;;20.84;66.31
45253;BME280;63171;50.520;30.486;2023-07-29T03:03:34;99285.56;;;20.82;66.60
45253;BME280;63171;50.520;30.486;2023-07-29T03:04:23;99291.78;;;20.74;66.60
45253;BME280;63171;50.520;30.486;2023-07-29T03:05:14;99289.47;;;20.71;66.24
45253;BME280;63171;50.520;30.486;2023-07-29T03:06:06;99292.28;;;20.70;66.62
45253;BME280;63171;50.520;30.486;2023-07-29T03:06:57;99295.78;;;20.70;66.45
45253;BME280;63171;50.520;30.486;2023-07-29T03:07:48;99287.28;;;20.75;66.75
45253;BME280;63171;50.520;30.486;2023-07-29T03:08:39;99284.44;;;20.76;66.81
45253;BME280;63171;50.520;30.486;2023-07-29T03:09:29;99294.91;;;20.78;66.61
45253;BME280;63171;50.520;30.486;2023-07-29T03:10:22;99295.06;;;20.84;67.18
45253;BME280;63171;50.520;30.486;2023-07-29T03:11:12;99293.88;;;20.87;67.20
45253;BME280;63171;50.520;30.486;2023-07-29T03:12:03;99296.06;;;20.83;66.70
45253;BME280;63171;50.520;30.486;2023-07-29T03:12:53;99293.72;;;20.80;67.06
45253;BME280;63171;50.520;30.486;2023-07-29T03:13:45;99289.88;;;20.83;66.85
45253;BME280;63171;50.520;30.486;2023-07-29T03:14:35;99290.22;;;20.80;66.74
45253;BME280;63171;50.520;30.486;2023-07-29T03:15:25;99301.88;;;20.79;66.94
45253;BME280;63171;50.520;30.486;2023-07-29T03:16:16;99293.25;;;20.77;66.81
45253;BME280;63171;50.520;30.486;2023-07-29T03:17:16;99291.06;;;20.80;66.97
45253;BME280;63171;50.520;30.486;2023-07-29T03:18:05;99300.69;;;20.81;66.84
45253;BME280;63171;50.520;30.486;2023-07-29T03:18:56;99300.06;;;20.79;67.05
45253;BME280;63171;50.520;30.486;2023-07-29T03:19:47;99305.03;;;20.82;67.13
45253;BME280;63171;50.520;30.486;2023-07-29T03:20:40;99299.53;;;20.84;67.37
45253;BME280;63171;50.520;30.486;2023-07-29T03:21:30;99297.72;;;20.84;67.01
45253;BME280;63171;50.520;30.486;2023-07-29T03:22:21;99298.19;;;20.88;67.29
45253;BME280;63171;50.520;30.486;2023-07-29T03:23:11;99301.50;;;20.90;67.24
45253;BME280;63171;50.520;30.486;2023-07-29T03:24:01;99298.88;;;20.82;67.35
45253;BME280;63171;50.520;30.486;2023-07-29T03:24:52;99306.72;;;20.83;67.26
45253;BME280;63171;50.520;30.486;2023-07-29T03:25:43;99303.38;;;20.81;67.46
45253;BME280;63171;50.520;30.486;2023-07-29T03:26:34;99302.84;;;20.86;66.99
45253;BME280;63171;50.520;30.486;2023-07-29T03:27:24;99307.81;;;20.89;67.37
45253;BME280;63171;50.520;30.486;2023-07-29T03:28:15;99301.31;;;20.91;67.35
45253;BME280;63171;50.520;30.486;2023-07-29T03:29:05;99305.16;;;20.89;67.60
45253;BME280;63171;50.520;30.486;2023-07-29T03:29:56;99296.34;;;20.88;67.18
45253;BME280;63171;50.520;30.486;2023-07-29T03:30:46;99302.84;;;20.86;67.17
45253;BME280;63171;50.520;30.486;2023-07-29T03:31:36;99303.31;;;20.89;67.30
45253;BME280;63171;50.520;30.486;2023-07-29T03:32:26;99308.00;;;20.87;67.34
45253;BME280;63171;50.520;30.486;2023-07-29T03:33:16;99300.19;;;20.86;67.58
45253;BME280;63171;50.520;30.486;2023-07-29T03:34:06;99302.50;;;20.89;67.42
45253;BME280;63171;50.520;30.486;2023-07-29T03:34:59;99305.16;;;20.89;67.53
45253;BME280;63171;50.520;30.486;2023-07-29T03:35:49;99307.34;;;20.85;67.53
45253;BME280;63171;50.520;30.486;2023-07-29T03:36:39;99302.72;;;20.79;67.36
45253;BME280;63171;50.520;30.486;2023-07-29T03:37:30;99307.22;;;20.79;67.27
45253;BME280;63171;50.520;30.486;2023-07-29T03:38:20;99304.72;;;20.77;67.71
45253;BME280;63171;50.520;30.486;2023-07-29T03:39:10;99305.91;;;20.75;67.53
45253;BME280;63171;50.520;30.486;2023-07-29T03:40:02;99303.44;;;20.73;67.69
45253;BME280;63171;50.520;30.486;2023-07-29T03:40:54;99305.72;;;20.76;67.69
45253;BME280;63171;50.520;30.486;2023-07-29T03:41:43;99308.50;;;20.83;67.92
45253;BME280;63171;50.520;30.486;2023-07-29T03:42:34;99309.84;;;20.87;68.12
45253;BME280;63171;50.520;30.486;2023-07-29T03:43:24;99311.50;;;20.88;67.87
45253;BME280;63171;50.520;30.486;2023-07-29T03:44:17;99315.16;;;20.87;68.25
45253;BME280;63171;50.520;30.486;2023-07-29T03:45:08;99311.31;;;20.89;67.99
45253;BME280;63171;50.520;30.486;2023-07-29T03:45:58;99309.31;;;20.91;68.16
45253;BME280;63171;50.520;30.486;2023-07-29T03:46:49;99318.94;;;20.92;68.13
45253;BME280;63171;50.520;30.486;2023-07-29T03:47:39;99307.81;;;20.89;68.15
45253;BME280;63171;50.520;30.486;2023-07-29T03:48:30;99307.00;;;20.88;68.31
45253;BME280;63171;50.520;30.486;2023-07-29T03:49:20;99314.69;;;20.83;68.02
45253;BME280;63171;50.520;30.486;2023-07-29T03:50:10;99318.84;;;20.86;68.18
45253;BME280;63171;50.520;30.486;2023-07-29T03:51:01;99318.47;;;20.89;68.12
45253;BME280;63171;50.520;30.486;2023-07-29T03:51:51;99313.97;;;20.89;68.45
45253;BME280;63171;50.520;30.486;2023-07-29T03:52:41;99311.03;;;20.84;68.48
45253;BME280;63171;50.520;30.486;2023-07-29T03:53:32;99314.00;;;20.81;68.57
45253;BME280;63171;50.520;30.486;2023-07-29T03:54:22;99308.88;;;20.80;68.66
45253;BME280;63171;50.520;30.486;2023-07-29T03:55:12;99315.19;;;20.79;68.66
45253;BME280;63171;50.520;30.486;2023-07-29T03:56:04;99316.50;;;20.83;68.43
45253;BME280;63171;50.520;30.486;2023-07-29T03:57:02;99319.84;;;20.85;68.60
45253;BME280;63171;50.520;30.486;2023-07-29T03:57:52;99314.00;;;20.81;68.77
45253;BME280;63171;50.520;30.486;2023-07-29T03:58:45;99326.66;;;20.79;68.61
45253;BME280;63171;50.520;30.486;2023-07-29T03:59:36;99314.72;;;20.75;68.98
45253;BME280;63171;50.520;30.486;2023-07-29T04:00:27;99314.84;;;20.82;69.16
45253;BME280;63171;50.520;30.486;2023-07-29T04:01:17;99316.34;;;20.84;69.11
45253;BME280;63171;50.520;30.486;2023-07-29T04:02:08;99318.50;;;20.81;68.92
45253;BME280;63171;50.520;30.486;2023-07-29T04:02:57;99317.72;;;20.72;69.15
45253;BME280;63171;50.520;30.486;2023-07-29T04:03:49;99311.59;;;20.72;69.16
45253;BME280;63171;50.520;30.486;2023-07-29T04:04:41;99316.19;;;20.78;69.33
45253;BME280;63171;50.520;30.486;2023-07-29T04:05:33;99314.00;;;20.81;69.62
45253;BME280;63171;50.520;30.486;2023-07-29T04:06:23;99318.47;;;20.89;69.62
45253;BME280;63171;50.520;30.486;2023-07-29T04:07:13;99312.13;;;20.90;69.55
45253;BME280;63171;50.520;30.486;2023-07-29T04:08:23;99313.63;;;20.92;69.46
45253;BME280;63171;50.520;30.486;2023-07-29T04:09:13;99302.31;;;20.90;69.84
45253;BME280;63171;50.520;30.486;2023-07-29T04:10:05;99311.97;;;20.91;69.91
45253;BME280;63171;50.520;30.486;2023-07-29T04:10:55;99313.81;;;20.91;69.54
45253;BME280;63171;50.520;30.486;2023-07-29T04:11:48;99307.19;;;20.87;69.84
45253;BME280;63171;50.520;30.486;2023-07-29T04:12:38;99311.50;;;20.88;69.78
45253;BME280;63171;50.520;30.486;2023-07-29T04:13:28;99313.63;;;20.92;70.02
45253;BME280;63171;50.520;30.486;2023-07-29T04:14:19;99315.41;;;21.00;70.21
45253;BME280;63171;50.520;30.486;2023-07-29T04:15:09;99314.34;;;21.09;70.30
45253;BME280;63171;50.520;30.486;2023-07-29T04:15:59;99318.63;;;21.18;70.27
45253;BME280;63171;50.520;30.486;2023-07-29T04:16:50;99322.75;;;21.29;70.66
45253;BME280;63171;50.520;30.486;2023-07-29T04:17:40;99316.03;;;21.33;70.25
45253;BME280;63171;50.520;30.486;2023-07-29T04:18:30;99319.72;;;21.32;70.22
45253;BME280;63171;50.520;30.486;2023-07-29T04:19:21;99305.41;;;21.33;70.42
45253;BME280;63171;50.520;30.486;2023-07-29T04:20:11;99317.25;;;21.31;70.43
45253;BME280;63171;50.520;30.486;2023-07-29T04:21:02;99319.19;;;21.37;70.45
45253;BME280;63171;50.520;30.486;2023-07-29T04:21:52;99308.84;;;21.42;70.58
45253;BME280;63171;50.520;30.486;2023-07-29T04:22:42;99313.81;;;21.45;70.50
45253;BME280;63171;50.520;30.486;2023-07-29T04:23:33;99319.06;;;21.53;70.40
45253;BME280;63171;50.520;30.486;2023-07-29T04:24:42;99316.09;;;21.71;70.22
45253;BME280;63171;50.520;30.486;2023-07-29T04:25:32;99310.56;;;21.72;70.29
45253;BME280;63171;50.520;30.486;2023-07-29T04:26:22;99310.69;;;21.79;70.41
45253;BME280;63171;50.520;30.486;2023-07-29T04:27:15;99309.50;;;21.81;69.97
45253;BME280;63171;50.520;30.486;2023-07-29T04:28:04;99311.22;;;21.89;69.81
45253;BME280;63171;50.520;30.486;2023-07-29T04:28:54;99307.94;;;22.02;69.77